This is the latest recevied weather packets stored in our database for station/object I5EKX-13. If no packets are shown the sender has not sent any weather packets the latest 1 day(s).
| Time | Temp. | Humidity | Pressure | Rain* | Wind** | Luminosity | Snow |
|---|---|---|---|---|---|---|---|
| 1778075568 | 21.11° C | 74% | 1006.6 hPa | - | - | - | - |
| 1778074363 | 20° C | 82% | 1006.8 hPa | - | - | - | - |
| 1778073159 | 20° C | 80% | 1006.9 hPa | - | - | - | - |
| 1778070748 | 20° C | 79% | 1006.9 hPa | - | - | - | - |
| 1778061114 | 21.11° C | 76% | 1006.5 hPa | - | - | - | - |
| 1778059910 | 19.44° C | 80% | 1006.5 hPa | - | - | - | - |
| 1778059655 | 19.44° C | 82% | 1006.5 hPa | - | - | - | - |
| 1778058450 | 17.78° C | 84% | 1006.3 hPa | - | - | - | - |
| 1778057245 | 17.78° C | 85% | 1006.3 hPa | - | - | - | - |
| 1778056040 | 17.22° C | 87% | 1006.2 hPa | - | - | - | - |
| 1778052426 | 16.67° C | 87% | 1006 hPa | - | - | - | - |
| 1778051221 | 16.67° C | 89% | 1006.1 hPa | - | - | - | - |
| 1778047607 | 16.11° C | 92% | 1006 hPa | - | - | - | - |
| 1778046402 | 16.11° C | 94% | 1005.9 hPa | - | - | - | - |
| 1778045197 | 16.11° C | 94% | 1005.8 hPa | - | - | - | - |
| 1778042788 | 15.56° C | 93% | 1005.6 hPa | - | - | - | - |
| 1778041583 | 15.56° C | 93% | 1005.7 hPa | - | - | - | - |
| 1778040379 | 15.56° C | 93% | 1005.8 hPa | - | - | - | - |
| 1778039173 | 15.56° C | 94% | 1005.5 hPa | - | - | - | - |
| 1778037969 | 15.56° C | 94% | 1005.9 hPa | - | - | - | - |
| 1778036764 | 15.56° C | 94% | 1005.9 hPa | - | - | - | - |
| 1778035559 | 16.11° C | 94% | 1005.6 hPa | - | - | - | - |
| 1778034355 | 16.11° C | 94% | 1005.7 hPa | - | - | - | - |
| 1778033150 | 16.11° C | 93% | 1006.2 hPa | - | - | - | - |
| 1778031945 | 16.11° C | 91% | 1006 hPa | - | - | - | - |
* Rain since midnight (hover to see other rain measurements)
** Current wind speed in m/s (hover to see current wind gust speed)